sensor_id;sensor_type;location;lat;lon;timestamp;pressure;altitude;pressure_sealevel;temperature;humidity
55685;BME280;41883;49.544;8.646;2023-03-03T07:23:25;101014.31;;;1.88;nan
55685;BME280;41883;49.544;8.646;2023-03-03T07:25:51;101004.47;;;2.09;nan
55685;BME280;41883;49.544;8.646;2023-03-03T07:28:27;100998.31;;;2.26;nan
55685;BME280;41883;49.544;8.646;2023-03-03T07:30:53;101015.31;;;2.63;nan
55685;BME280;41883;49.544;8.646;2023-03-03T07:33:26;101012.88;;;3.05;nan
55685;BME280;41883;49.544;8.646;2023-03-03T07:35:53;101018.31;;;3.45;nan
55685;BME280;41883;49.544;8.646;2023-03-03T07:38:22;101028.50;;;3.64;nan
55685;BME280;41883;49.544;8.646;2023-03-03T07:40:49;101031.75;;;3.81;nan
55685;BME280;41883;49.544;8.646;2023-03-03T07:48:48;101032.66;;;2.94;nan
55685;BME280;41883;49.544;8.646;2023-03-03T07:51:35;101032.00;;;2.61;nan
55685;BME280;41883;49.544;8.646;2023-03-03T07:54:16;101025.16;;;2.28;nan
55685;BME280;41883;49.544;8.646;2023-03-03T07:56:49;101035.28;;;2.02;nan
55685;BME280;41883;49.544;8.646;2023-03-03T07:59:17;101033.94;;;1.79;nan
55685;BME280;41883;49.544;8.646;2023-03-03T08:01:45;101050.06;;;1.70;nan
55685;BME280;41883;49.544;8.646;2023-03-03T08:06:41;101053.69;;;1.67;nan
55685;BME280;41883;49.544;8.646;2023-03-03T08:11:33;101067.38;;;1.71;nan
55685;BME280;41883;49.544;8.646;2023-03-03T08:13:58;101066.81;;;1.82;nan
55685;BME280;41883;49.544;8.646;2023-03-03T08:16:34;101072.47;;;1.90;nan
55685;BME280;41883;49.544;8.646;2023-03-03T08:19:01;101068.59;;;1.97;nan
55685;BME280;41883;49.544;8.646;2023-03-03T08:21:27;101073.25;;;2.08;nan
55685;BME280;41883;49.544;8.646;2023-03-03T08:23:53;101077.09;;;2.17;nan
55685;BME280;41883;49.544;8.646;2023-03-03T08:26:19;101076.69;;;2.24;nan
55685;BME280;41883;49.544;8.646;2023-03-03T08:28:44;101073.72;;;2.30;nan
55685;BME280;41883;49.544;8.646;2023-03-03T08:31:13;101069.66;;;2.41;nan
55685;BME280;41883;49.544;8.646;2023-03-03T08:33:38;101072.78;;;2.47;nan
55685;BME280;41883;49.544;8.646;2023-03-03T08:36:04;101071.63;;;2.53;nan
55685;BME280;41883;49.544;8.646;2023-03-03T08:38:29;101067.03;;;2.57;nan
55685;BME280;41883;49.544;8.646;2023-03-03T08:40:55;101065.25;;;2.73;nan
55685;BME280;41883;49.544;8.646;2023-03-03T08:43:20;101068.06;;;3.14;nan
55685;BME280;41883;49.544;8.646;2023-03-03T08:45:50;101069.47;;;3.92;nan
55685;BME280;41883;49.544;8.646;2023-03-03T08:48:16;101063.44;;;4.73;nan
55685;BME280;41883;49.544;8.646;2023-03-03T08:50:41;101061.72;;;5.50;nan
55685;BME280;41883;49.544;8.646;2023-03-03T08:53:07;101073.63;;;6.18;nan
55685;BME280;41883;49.544;8.646;2023-03-03T08:55:32;101069.50;;;6.75;nan
55685;BME280;41883;49.544;8.646;2023-03-03T08:57:57;101074.03;;;6.73;nan
55685;BME280;41883;49.544;8.646;2023-03-03T09:00:23;101072.38;;;6.83;nan
55685;BME280;41883;49.544;8.646;2023-03-03T09:02:49;101077.00;;;7.15;nan
55685;BME280;41883;49.544;8.646;2023-03-03T09:05:15;101076.22;;;7.26;nan
55685;BME280;41883;49.544;8.646;2023-03-03T09:07:41;101073.47;;;7.38;nan
55685;BME280;41883;49.544;8.646;2023-03-03T09:10:06;101076.72;;;7.87;nan
55685;BME280;41883;49.544;8.646;2023-03-03T09:12:33;101080.19;;;7.65;nan
55685;BME280;41883;49.544;8.646;2023-03-03T09:14:59;101079.88;;;8.24;nan
55685;BME280;41883;49.544;8.646;2023-03-03T09:17:34;101072.50;;;8.62;nan
55685;BME280;41883;49.544;8.646;2023-03-03T09:20:01;101063.88;;;8.92;nan
55685;BME280;41883;49.544;8.646;2023-03-03T09:22:35;101074.66;;;8.89;nan
55685;BME280;41883;49.544;8.646;2023-03-03T09:25:02;101073.19;;;9.17;nan
55685;BME280;41883;49.544;8.646;2023-03-03T09:27:38;101066.19;;;9.27;nan
55685;BME280;41883;49.544;8.646;2023-03-03T09:32:48;101068.44;;;9.32;nan
55685;BME280;41883;49.544;8.646;2023-03-03T09:37:51;101069.25;;;10.34;nan
55685;BME280;41883;49.544;8.646;2023-03-03T09:45:46;101067.59;;;10.62;nan
55685;BME280;41883;49.544;8.646;2023-03-03T09:48:24;101076.53;;;10.81;nan
55685;BME280;41883;49.544;8.646;2023-03-03T09:53:30;101082.22;;;10.47;nan
55685;BME280;41883;49.544;8.646;2023-03-03T09:58:36;101081.91;;;9.90;nan
55685;BME280;41883;49.544;8.646;2023-03-03T10:08:55;101084.34;;;8.13;nan
55685;BME280;41883;49.544;8.646;2023-03-03T10:14:33;101091.56;;;7.54;nan
55685;BME280;41883;49.544;8.646;2023-03-03T10:27:27;101082.94;;;10.69;nan
55685;BME280;41883;49.544;8.646;2023-03-03T10:30:06;101087.53;;;12.00;nan
55685;BME280;41883;49.544;8.646;2023-03-03T10:38:01;101074.25;;;12.27;nan
55685;BME280;41883;49.544;8.646;2023-03-03T10:40:32;101089.25;;;12.19;nan
55685;BME280;41883;49.544;8.646;2023-03-03T10:48:42;101092.63;;;12.92;nan
55685;BME280;41883;49.544;8.646;2023-03-03T10:51:20;101088.88;;;13.03;nan
55685;BME280;41883;49.544;8.646;2023-03-03T11:01:52;101079.88;;;13.40;nan
55685;BME280;41883;49.544;8.646;2023-03-03T11:04:23;101080.34;;;13.62;nan
55685;BME280;41883;49.544;8.646;2023-03-03T11:09:33;101089.69;;;13.40;nan
55685;BME280;41883;49.544;8.646;2023-03-03T11:14:42;101091.28;;;14.35;nan
55685;BME280;41883;49.544;8.646;2023-03-03T11:19:54;101083.69;;;14.90;nan
55685;BME280;41883;49.544;8.646;2023-03-03T11:27:59;101087.88;;;14.76;nan
55685;BME280;41883;49.544;8.646;2023-03-03T11:35:28;101076.69;;;15.13;nan
55685;BME280;41883;49.544;8.646;2023-03-03T11:40:47;101073.19;;;13.62;nan
55685;BME280;41883;49.544;8.646;2023-03-03T11:45:58;101063.94;;;12.06;nan
55685;BME280;41883;49.544;8.646;2023-03-03T11:51:06;101066.22;;;11.54;nan
55685;BME280;41883;49.544;8.646;2023-03-03T11:56:20;101065.09;;;10.90;nan
55685;BME280;41883;49.544;8.646;2023-03-03T12:01:22;101057.13;;;11.10;nan
55685;BME280;41883;49.544;8.646;2023-03-03T12:03:57;101057.59;;;10.86;nan
55685;BME280;41883;49.544;8.646;2023-03-03T12:06:33;101049.25;;;10.51;nan
55685;BME280;41883;49.544;8.646;2023-03-03T12:12:02;101048.03;;;10.15;nan
55685;BME280;41883;49.544;8.646;2023-03-03T12:14:49;101037.97;;;10.49;nan
55685;BME280;41883;49.544;8.646;2023-03-03T12:17:40;101032.97;;;10.56;nan
55685;BME280;41883;49.544;8.646;2023-03-03T12:25:20;101029.41;;;10.16;nan
55685;BME280;41883;49.544;8.646;2023-03-03T12:28:20;101034.97;;;10.04;nan
55685;BME280;41883;49.544;8.646;2023-03-03T12:38:50;101018.03;;;9.66;nan
55685;BME280;41883;49.544;8.646;2023-03-03T12:44:22;101015.94;;;9.39;nan
55685;BME280;41883;49.544;8.646;2023-03-03T12:46:58;101014.59;;;9.44;nan
55685;BME280;41883;49.544;8.646;2023-03-03T12:49:31;101014.84;;;9.41;nan
55685;BME280;41883;49.544;8.646;2023-03-03T12:52:19;101006.66;;;9.34;nan
55685;BME280;41883;49.544;8.646;2023-03-03T12:54:52;101002.75;;;9.39;nan
55685;BME280;41883;49.544;8.646;2023-03-03T12:57:46;100990.06;;;9.53;nan
55685;BME280;41883;49.544;8.646;2023-03-03T13:00:27;100993.13;;;9.59;nan
55685;BME280;41883;49.544;8.646;2023-03-03T13:03:04;100988.78;;;9.57;nan
55685;BME280;41883;49.544;8.646;2023-03-03T13:08:41;100985.84;;;9.51;nan
55685;BME280;41883;49.544;8.646;2023-03-03T13:14:00;100979.22;;;9.56;nan
55685;BME280;41883;49.544;8.646;2023-03-03T13:16:30;100972.53;;;9.52;nan
55685;BME280;41883;49.544;8.646;2023-03-03T13:18:59;100979.94;;;9.68;nan
55685;BME280;41883;49.544;8.646;2023-03-03T13:21:29;100971.88;;;9.70;nan
55685;BME280;41883;49.544;8.646;2023-03-03T13:29:19;100974.50;;;9.70;nan
55685;BME280;41883;49.544;8.646;2023-03-03T13:31:46;100972.25;;;9.55;nan
55685;BME280;41883;49.544;8.646;2023-03-03T13:36:56;100973.66;;;9.60;nan
55685;BME280;41883;49.544;8.646;2023-03-03T13:39:24;100974.50;;;9.60;nan
55685;BME280;41883;49.544;8.646;2023-03-03T13:42:02;100975.94;;;9.74;nan
55685;BME280;41883;49.544;8.646;2023-03-03T13:44:35;100979.28;;;9.86;nan
55685;BME280;41883;49.544;8.646;2023-03-03T13:52:09;100965.53;;;9.82;nan
55685;BME280;41883;49.544;8.646;2023-03-03T13:59:48;100949.81;;;9.90;nan
55685;BME280;41883;49.544;8.646;2023-03-03T14:02:20;100958.75;;;9.89;nan
55685;BME280;41883;49.544;8.646;2023-03-03T14:04:49;100944.53;;;9.81;nan
55685;BME280;41883;49.544;8.646;2023-03-03T14:07:18;100940.91;;;9.82;nan
55685;BME280;41883;49.544;8.646;2023-03-03T14:15:00;100933.69;;;9.93;nan
55685;BME280;41883;49.544;8.646;2023-03-03T14:17:39;100940.50;;;9.96;nan
55685;BME280;41883;49.544;8.646;2023-03-03T14:20:13;100934.09;;;9.98;nan
55685;BME280;41883;49.544;8.646;2023-03-03T14:22:58;100926.88;;;9.91;nan
55685;BME280;41883;49.544;8.646;2023-03-03T14:25:25;100926.47;;;9.86;nan
55685;BME280;41883;49.544;8.646;2023-03-03T14:27:58;100927.56;;;9.83;nan
55685;BME280;41883;49.544;8.646;2023-03-03T14:33:36;100926.88;;;9.81;nan
55685;BME280;41883;49.544;8.646;2023-03-03T14:38:02;100926.44;;;9.76;nan
55685;BME280;41883;49.544;8.646;2023-03-03T14:40:31;100922.56;;;9.70;nan
55685;BME280;41883;49.544;8.646;2023-03-03T14:42:58;100919.22;;;9.68;nan
55685;BME280;41883;49.544;8.646;2023-03-03T14:45:37;100912.53;;;9.64;nan
55685;BME280;41883;49.544;8.646;2023-03-03T14:50:35;100920.03;;;9.59;nan
55685;BME280;41883;49.544;8.646;2023-03-03T14:55:43;100908.25;;;9.63;nan
55685;BME280;41883;49.544;8.646;2023-03-03T14:58:25;100921.44;;;9.63;nan
55685;BME280;41883;49.544;8.646;2023-03-03T15:03:35;100922.38;;;9.62;nan
55685;BME280;41883;49.544;8.646;2023-03-03T15:06:09;100919.91;;;9.61;nan
55685;BME280;41883;49.544;8.646;2023-03-03T15:08:35;100917.50;;;9.57;nan
55685;BME280;41883;49.544;8.646;2023-03-03T15:11:11;100924.31;;;9.50;nan
55685;BME280;41883;49.544;8.646;2023-03-03T15:13:37;100917.22;;;9.51;nan
55685;BME280;41883;49.544;8.646;2023-03-03T15:16:21;100917.22;;;9.51;nan
55685;BME280;41883;49.544;8.646;2023-03-03T15:21:19;100918.91;;;9.52;nan
55685;BME280;41883;49.544;8.646;2023-03-03T15:26:20;100918.31;;;9.48;nan
55685;BME280;41883;49.544;8.646;2023-03-03T15:28:57;100918.28;;;9.39;nan
55685;BME280;41883;49.544;8.646;2023-03-03T15:34:26;100926.06;;;9.30;nan
55685;BME280;41883;49.544;8.646;2023-03-03T15:39:24;100926.81;;;9.11;nan
55685;BME280;41883;49.544;8.646;2023-03-03T15:41:56;100920.69;;;9.01;nan
55685;BME280;41883;49.544;8.646;2023-03-03T15:44:43;100931.56;;;8.87;nan
55685;BME280;41883;49.544;8.646;2023-03-03T15:47:16;100924.56;;;8.76;nan
55685;BME280;41883;49.544;8.646;2023-03-03T15:52:14;100926.97;;;8.58;nan
55685;BME280;41883;49.544;8.646;2023-03-03T16:02:57;100927.41;;;8.31;nan
55685;BME280;41883;49.544;8.646;2023-03-03T16:07:59;100931.34;;;8.16;nan
55685;BME280;41883;49.544;8.646;2023-03-03T16:18:22;100939.06;;;7.96;nan
55685;BME280;41883;49.544;8.646;2023-03-03T16:20:59;100940.84;;;7.96;nan
55685;BME280;41883;49.544;8.646;2023-03-03T16:23:34;100938.84;;;7.88;nan
55685;BME280;41883;49.544;8.646;2023-03-03T16:26:17;100947.94;;;7.84;nan
55685;BME280;41883;49.544;8.646;2023-03-03T16:28:53;100947.63;;;7.77;nan
55685;BME280;41883;49.544;8.646;2023-03-03T16:36:31;100955.91;;;7.50;nan
55685;BME280;41883;49.544;8.646;2023-03-03T16:39:04;100960.94;;;7.42;nan
55685;BME280;41883;49.544;8.646;2023-03-03T16:41:49;100963.00;;;7.27;nan
55685;BME280;41883;49.544;8.646;2023-03-03T16:46:45;100975.28;;;7.15;nan
55685;BME280;41883;49.544;8.646;2023-03-03T16:54:25;100991.16;;;7.02;nan
55685;BME280;41883;49.544;8.646;2023-03-03T16:57:15;100985.41;;;6.97;nan
55685;BME280;41883;49.544;8.646;2023-03-03T17:02:26;100990.06;;;6.83;nan
55685;BME280;41883;49.544;8.646;2023-03-03T17:18:10;101008.91;;;6.41;nan
55685;BME280;41883;49.544;8.646;2023-03-03T17:20:38;101016.19;;;6.37;nan
55685;BME280;41883;49.544;8.646;2023-03-03T17:26:01;101024.72;;;6.28;nan
55685;BME280;41883;49.544;8.646;2023-03-03T17:31:30;101032.88;;;6.12;nan
55685;BME280;41883;49.544;8.646;2023-03-03T17:39:04;101047.50;;;5.91;nan
55685;BME280;41883;49.544;8.646;2023-03-03T17:44:01;101053.75;;;5.64;nan
55685;BME280;41883;49.544;8.646;2023-03-03T17:46:47;101060.59;;;5.54;nan
55685;BME280;41883;49.544;8.646;2023-03-03T17:52:05;101063.31;;;5.40;nan
55685;BME280;41883;49.544;8.646;2023-03-03T18:08:00;101077.31;;;5.00;nan
55685;BME280;41883;49.544;8.646;2023-03-03T18:13:30;101069.84;;;4.81;nan
55685;BME280;41883;49.544;8.646;2023-03-03T18:21:08;101080.28;;;4.56;nan
55685;BME280;41883;49.544;8.646;2023-03-03T18:26:27;101090.34;;;4.35;nan
55685;BME280;41883;49.544;8.646;2023-03-03T18:28:49;101092.50;;;4.28;nan
55685;BME280;41883;49.544;8.646;2023-03-03T18:31:22;101096.34;;;4.22;nan
55685;BME280;41883;49.544;8.646;2023-03-03T18:38:48;101097.41;;;4.06;nan
55685;BME280;41883;49.544;8.646;2023-03-03T18:41:29;101095.66;;;3.92;nan
55685;BME280;41883;49.544;8.646;2023-03-03T18:43:59;101103.69;;;3.74;nan
55685;BME280;41883;49.544;8.646;2023-03-03T18:49:00;101103.50;;;3.49;nan
55685;BME280;41883;49.544;8.646;2023-03-03T19:07:27;101126.56;;;4.14;nan
55685;BME280;41883;49.544;8.646;2023-03-03T19:09:54;101120.19;;;4.18;nan
55685;BME280;41883;49.544;8.646;2023-03-03T19:13:12;101130.88;;;4.15;nan
55685;BME280;41883;49.544;8.646;2023-03-03T19:18:17;101127.94;;;4.19;nan
55685;BME280;41883;49.544;8.646;2023-03-03T19:20:44;101130.38;;;4.22;nan
55685;BME280;41883;49.544;8.646;2023-03-03T19:23:22;101126.94;;;4.22;nan
55685;BME280;41883;49.544;8.646;2023-03-03T19:26:17;101132.34;;;4.19;nan
55685;BME280;41883;49.544;8.646;2023-03-03T19:28:40;101136.66;;;4.06;nan
55685;BME280;41883;49.544;8.646;2023-03-03T19:36:27;101153.47;;;3.87;nan
55685;BME280;41883;49.544;8.646;2023-03-03T19:43:54;101144.69;;;3.74;nan
55685;BME280;41883;49.544;8.646;2023-03-03T19:49:10;101156.13;;;3.43;nan
55685;BME280;41883;49.544;8.646;2023-03-03T19:54:16;101151.59;;;3.16;nan
55685;BME280;41883;49.544;8.646;2023-03-03T19:56:50;101152.13;;;3.07;nan
55685;BME280;41883;49.544;8.646;2023-03-03T19:59:36;101150.91;;;2.98;nan
55685;BME280;41883;49.544;8.646;2023-03-03T20:07:22;101158.44;;;3.03;nan
55685;BME280;41883;49.544;8.646;2023-03-03T20:09:59;101158.94;;;3.09;nan
55685;BME280;41883;49.544;8.646;2023-03-03T20:12:32;101157.75;;;3.15;nan
55685;BME280;41883;49.544;8.646;2023-03-03T20:15:07;101155.88;;;3.17;nan
55685;BME280;41883;49.544;8.646;2023-03-03T20:17:47;101161.06;;;3.03;nan
55685;BME280;41883;49.544;8.646;2023-03-03T20:25:42;101169.63;;;2.43;nan
55685;BME280;41883;49.544;8.646;2023-03-03T20:28:13;101174.91;;;2.25;nan
55685;BME280;41883;49.544;8.646;2023-03-03T20:38:29;101181.31;;;1.69;nan
55685;BME280;41883;49.544;8.646;2023-03-03T20:41:11;101184.25;;;1.63;nan
55685;BME280;41883;49.544;8.646;2023-03-03T20:46:20;101190.31;;;1.46;nan
55685;BME280;41883;49.544;8.646;2023-03-03T20:53:50;101191.31;;;1.26;nan
55685;BME280;41883;49.544;8.646;2023-03-03T20:59:15;101197.13;;;1.14;nan
55685;BME280;41883;49.544;8.646;2023-03-03T21:04:18;101197.94;;;1.14;nan
55685;BME280;41883;49.544;8.646;2023-03-03T21:06:44;101191.00;;;1.15;nan
55685;BME280;41883;49.544;8.646;2023-03-03T21:09:31;101195.34;;;1.14;nan
55685;BME280;41883;49.544;8.646;2023-03-03T21:11:55;101185.25;;;1.08;nan
55685;BME280;41883;49.544;8.646;2023-03-03T21:16:49;101192.88;;;0.94;nan
55685;BME280;41883;49.544;8.646;2023-03-03T21:19:23;101192.09;;;0.92;nan
55685;BME280;41883;49.544;8.646;2023-03-03T21:21:50;101200.75;;;0.92;nan
55685;BME280;41883;49.544;8.646;2023-03-03T21:24:15;101198.31;;;0.89;nan
55685;BME280;41883;49.544;8.646;2023-03-03T21:31:44;101197.75;;;0.82;nan
55685;BME280;41883;49.544;8.646;2023-03-03T21:34:26;101199.34;;;0.85;nan
55685;BME280;41883;49.544;8.646;2023-03-03T21:36:52;101198.31;;;0.89;nan
55685;BME280;41883;49.544;8.646;2023-03-03T21:39:18;101203.50;;;0.89;nan
55685;BME280;41883;49.544;8.646;2023-03-03T21:41:50;101201.81;;;0.88;nan
55685;BME280;41883;49.544;8.646;2023-03-03T21:44:30;101207.00;;;0.88;nan
55685;BME280;41883;49.544;8.646;2023-03-03T21:46:55;101207.16;;;0.85;nan
55685;BME280;41883;49.544;8.646;2023-03-03T21:49:20;101203.00;;;0.81;nan
55685;BME280;41883;49.544;8.646;2023-03-03T21:51:45;101202.69;;;0.70;nan
55685;BME280;41883;49.544;8.646;2023-03-03T21:54:11;101209.09;;;0.62;nan
55685;BME280;41883;49.544;8.646;2023-03-03T21:56:36;101209.22;;;0.59;nan
55685;BME280;41883;49.544;8.646;2023-03-03T21:59:05;101208.34;;;0.60;nan
55685;BME280;41883;49.544;8.646;2023-03-03T22:01:30;101208.97;;;0.66;nan
55685;BME280;41883;49.544;8.646;2023-03-03T22:03:55;101210.56;;;0.68;nan
55685;BME280;41883;49.544;8.646;2023-03-03T22:06:21;101214.09;;;0.67;nan
55685;BME280;41883;49.544;8.646;2023-03-03T22:08:46;101216.03;;;0.62;nan
55685;BME280;41883;49.544;8.646;2023-03-03T22:11:11;101219.84;;;0.55;nan
55685;BME280;41883;49.544;8.646;2023-03-03T22:13:36;101214.88;;;0.50;nan
55685;BME280;41883;49.544;8.646;2023-03-03T22:16:04;101229.97;;;0.42;nan
55685;BME280;41883;49.544;8.646;2023-03-03T22:18:31;101222.31;;;0.39;nan
55685;BME280;41883;49.544;8.646;2023-03-03T22:20:56;101217.28;;;0.36;nan
55685;BME280;41883;49.544;8.646;2023-03-03T22:23:21;101219.16;;;0.32;nan
55685;BME280;41883;49.544;8.646;2023-03-03T22:25:47;101218.47;;;0.29;nan
55685;BME280;41883;49.544;8.646;2023-03-03T22:28:12;101223.72;;;0.27;nan
55685;BME280;41883;49.544;8.646;2023-03-03T22:30:37;101228.13;;;0.25;nan
55685;BME280;41883;49.544;8.646;2023-03-03T22:33:02;101227.34;;;0.23;nan
55685;BME280;41883;49.544;8.646;2023-03-03T22:35:27;101225.03;;;0.17;nan
55685;BME280;41883;49.544;8.646;2023-03-03T22:37:53;101223.53;;;0.11;nan
55685;BME280;41883;49.544;8.646;2023-03-03T22:40:18;101227.06;;;0.10;nan
55685;BME280;41883;49.544;8.646;2023-03-03T22:42:43;101226.28;;;0.08;nan
55685;BME280;41883;49.544;8.646;2023-03-03T22:45:08;101237.53;;;0.09;nan
55685;BME280;41883;49.544;8.646;2023-03-03T22:47:34;101242.03;;;0.05;nan
55685;BME280;41883;49.544;8.646;2023-03-03T22:49:59;101236.94;;;0.02;nan
55685;BME280;41883;49.544;8.646;2023-03-03T22:52:24;101240.31;;;0.04;nan
55685;BME280;41883;49.544;8.646;2023-03-03T22:54:50;101236.94;;;0.02;nan
55685;BME280;41883;49.544;8.646;2023-03-03T22:57:15;101240.59;;;-0.02;nan
55685;BME280;41883;49.544;8.646;2023-03-03T22:59:40;101240.81;;;-0.07;nan
55685;BME280;41883;49.544;8.646;2023-03-03T23:02:05;101238.31;;;-0.10;nan
55685;BME280;41883;49.544;8.646;2023-03-03T23:04:30;101239.28;;;-0.12;nan
55685;BME280;41883;49.544;8.646;2023-03-03T23:06:57;101246.31;;;-0.14;nan
55685;BME280;41883;49.544;8.646;2023-03-03T23:09:22;101243.78;;;-0.16;nan
55685;BME280;41883;49.544;8.646;2023-03-03T23:11:48;101241.34;;;-0.19;nan
55685;BME280;41883;49.544;8.646;2023-03-03T23:14:13;101243.34;;;-0.26;nan
55685;BME280;41883;49.544;8.646;2023-03-03T23:16:38;101239.22;;;-0.31;nan
55685;BME280;41883;49.544;8.646;2023-03-03T23:19:03;101245.59;;;-0.38;nan
55685;BME280;41883;49.544;8.646;2023-03-03T23:21:29;101245.78;;;-0.43;nan
55685;BME280;41883;49.544;8.646;2023-03-03T23:23:54;101250.31;;;-0.48;nan
55685;BME280;41883;49.544;8.646;2023-03-03T23:26:20;101253.06;;;-0.51;nan
55685;BME280;41883;49.544;8.646;2023-03-03T23:28:45;101246.88;;;-0.49;nan
55685;BME280;41883;49.544;8.646;2023-03-03T23:31:10;101246.84;;;-0.47;nan
55685;BME280;41883;49.544;8.646;2023-03-03T23:33:35;101247.72;;;-0.48;nan
55685;BME280;41883;49.544;8.646;2023-03-03T23:36:01;101247.84;;;-0.51;nan
55685;BME280;41883;49.544;8.646;2023-03-03T23:38:26;101247.84;;;-0.51;nan
55685;BME280;41883;49.544;8.646;2023-03-03T23:40:51;101252.34;;;-0.55;nan
55685;BME280;41883;49.544;8.646;2023-03-03T23:43:17;101251.56;;;-0.57;nan
55685;BME280;41883;49.544;8.646;2023-03-03T23:45:42;101249.16;;;-0.61;nan
55685;BME280;41883;49.544;8.646;2023-03-03T23:48:07;101252.72;;;-0.64;nan
55685;BME280;41883;49.544;8.646;2023-03-03T23:50:33;101259.78;;;-0.68;nan
55685;BME280;41883;49.544;8.646;2023-03-03T23:53:01;101254.84;;;-0.74;nan
55685;BME280;41883;49.544;8.646;2023-03-03T23:55:26;101264.53;;;-0.79;nan
55685;BME280;41883;49.544;8.646;2023-03-03T23:57:51;101253.44;;;-0.82;nan
